createdAt,value
2022-12-18T00:02:16.175Z,4.37
2022-12-18T00:04:43.031Z,4.40
2022-12-18T00:07:10.206Z,4.45
2022-12-18T00:09:39.468Z,4.39
2022-12-18T00:14:45.535Z,4.37
2022-12-18T00:17:12.553Z,4.19
2022-12-18T00:19:39.332Z,4.49
2022-12-18T00:22:07.462Z,4.13
2022-12-18T00:24:34.287Z,4.16
2022-12-18T00:27:01.024Z,4.24
2022-12-18T00:29:27.952Z,4.32
2022-12-18T00:31:54.949Z,4.37
2022-12-18T00:34:21.765Z,4.43
2022-12-18T00:36:49.255Z,4.28
2022-12-18T00:39:16.086Z,4.32
2022-12-18T00:42:01.796Z,4.23
2022-12-18T00:44:28.595Z,4.24
2022-12-18T00:46:55.350Z,4.16
2022-12-18T00:49:22.474Z,4.12
2022-12-18T00:51:49.625Z,4.08
2022-12-18T00:54:17.573Z,3.91
2022-12-18T00:56:49.011Z,4.11
2022-12-18T00:59:17.911Z,3.89
2022-12-18T01:01:45.943Z,3.93
2022-12-18T01:04:13.235Z,4.10
2022-12-18T01:06:40.015Z,4.14
2022-12-18T01:09:07.024Z,3.82
2022-12-18T01:11:33.974Z,4.00
2022-12-18T01:14:00.755Z,4.01
2022-12-18T01:16:28.056Z,3.86
2022-12-18T01:18:56.060Z,3.78
2022-12-18T01:21:24.805Z,3.91
2022-12-18T01:23:56.377Z,3.98
2022-12-18T01:26:23.677Z,4.04
2022-12-18T01:28:50.503Z,4.03
2022-12-18T01:31:26.566Z,3.83
2022-12-18T01:33:54.278Z,3.84
2022-12-18T01:36:26.484Z,3.95
2022-12-18T01:38:54.505Z,4.00
2022-12-18T01:41:25.005Z,3.97
2022-12-18T01:43:58.107Z,3.97
2022-12-18T01:46:28.786Z,3.85
2022-12-18T01:49:00.389Z,3.90
2022-12-18T01:51:28.812Z,3.74
2022-12-18T01:53:55.815Z,3.82
2022-12-18T01:56:23.288Z,3.90
2022-12-18T01:59:07.149Z,3.95
2022-12-18T02:01:34.623Z,4.04
2022-12-18T02:04:22.113Z,3.94
2022-12-18T02:06:54.753Z,3.78
2022-12-18T02:09:30.414Z,3.76
2022-12-18T02:12:11.755Z,3.89
2022-12-18T02:14:56.614Z,3.80
2022-12-18T02:17:31.574Z,3.90
2022-12-18T02:20:01.061Z,3.86
2022-12-18T02:22:47.254Z,3.90
2022-12-18T02:25:21.395Z,3.90
2022-12-18T02:27:50.340Z,4.04
2022-12-18T02:30:18.482Z,3.98
2022-12-18T02:32:51.133Z,3.89
2022-12-18T02:35:25.073Z,4.00
2022-12-18T02:37:59.177Z,3.94
2022-12-18T02:40:29.432Z,3.88
2022-12-18T02:42:56.380Z,3.69
2022-12-18T02:45:23.196Z,3.74
2022-12-18T02:47:51.684Z,3.76
2022-12-18T02:50:27.495Z,3.94
2022-12-18T02:52:54.249Z,3.78
2022-12-18T02:55:33.783Z,3.76
2022-12-18T02:58:19.512Z,3.77
2022-12-18T03:01:08.545Z,3.64
2022-12-18T03:03:47.852Z,3.51
2022-12-18T03:06:33.172Z,3.55
2022-12-18T03:09:05.824Z,3.63
2022-12-18T03:11:58.024Z,3.66
2022-12-18T03:14:27.141Z,3.86
2022-12-18T03:17:00.039Z,3.75
2022-12-18T03:19:30.644Z,3.86
2022-12-18T03:21:59.988Z,3.87
2022-12-18T03:24:31.063Z,3.91
2022-12-18T03:27:03.778Z,3.74
2022-12-18T03:29:38.927Z,3.76
2022-12-18T03:32:31.912Z,3.87
2022-12-18T03:35:03.883Z,3.79
2022-12-18T03:37:34.272Z,3.75
2022-12-18T03:40:01.115Z,3.80
2022-12-18T03:42:41.462Z,3.55
2022-12-18T03:45:37.699Z,3.85
2022-12-18T03:48:09.962Z,3.76
2022-12-18T03:50:55.113Z,3.82
2022-12-18T03:53:34.928Z,3.78
2022-12-18T03:56:03.223Z,3.81
2022-12-18T03:58:33.028Z,3.91
2022-12-18T04:01:03.402Z,3.74
2022-12-18T04:03:32.974Z,3.86
2022-12-18T04:06:02.152Z,3.87
2022-12-18T04:08:30.152Z,3.71
2022-12-18T04:10:57.013Z,3.59
2022-12-18T04:13:30.860Z,3.47
2022-12-18T04:15:57.957Z,3.40
2022-12-18T04:18:24.881Z,3.22
2022-12-18T04:20:51.683Z,3.08
2022-12-18T04:23:18.513Z,3.37
2022-12-18T04:25:45.293Z,3.44
2022-12-18T04:28:12.113Z,3.49
2022-12-18T04:30:39.297Z,3.54
2022-12-18T04:33:12.880Z,3.57
2022-12-18T04:35:40.845Z,3.46
2022-12-18T04:38:09.516Z,3.57
2022-12-18T04:40:37.201Z,3.68
2022-12-18T04:43:05.001Z,3.79
2022-12-18T04:45:32.972Z,3.64
2022-12-18T04:48:00.688Z,3.75
2022-12-18T04:50:28.043Z,3.60
2022-12-18T04:52:54.903Z,3.69
2022-12-18T04:55:21.911Z,3.65
2022-12-18T04:57:48.772Z,3.58
2022-12-18T05:00:15.893Z,3.66
2022-12-18T05:02:42.842Z,3.65
2022-12-18T05:05:10.293Z,3.61
2022-12-18T05:07:37.115Z,3.57
2022-12-18T05:10:08.970Z,3.55
2022-12-18T05:12:57.315Z,3.60
2022-12-18T05:15:24.129Z,3.58
2022-12-18T05:17:50.904Z,3.71
2022-12-18T05:20:19.294Z,3.53
2022-12-18T05:22:46.233Z,3.45
2022-12-18T05:25:13.045Z,3.69
2022-12-18T05:27:39.960Z,3.45
2022-12-18T05:30:07.413Z,3.37
2022-12-18T05:32:34.273Z,3.49
2022-12-18T05:35:01.112Z,3.45
2022-12-18T05:37:27.933Z,3.37
2022-12-18T05:39:54.748Z,3.09
2022-12-18T05:42:21.562Z,3.11
2022-12-18T05:44:48.602Z,3.13
2022-12-18T05:47:15.433Z,3.24
2022-12-18T05:49:42.333Z,3.25
2022-12-18T05:52:09.252Z,3.21
2022-12-18T05:54:36.304Z,3.15
2022-12-18T05:57:03.221Z,3.22
2022-12-18T05:59:30.024Z,3.25
2022-12-18T06:01:57.094Z,3.31
2022-12-18T06:04:23.962Z,3.33
2022-12-18T06:06:50.713Z,3.32
2022-12-18T06:09:17.582Z,3.27
2022-12-18T06:11:44.464Z,3.34
2022-12-18T06:14:11.267Z,3.48
2022-12-18T06:16:38.195Z,3.58
2022-12-18T06:19:06.691Z,3.49
2022-12-18T06:21:33.768Z,3.44
2022-12-18T06:24:01.300Z,3.30
2022-12-18T06:26:28.745Z,3.27
2022-12-18T06:28:55.902Z,3.36
2022-12-18T06:31:22.798Z,3.33
2022-12-18T06:33:49.668Z,3.32
2022-12-18T06:36:17.727Z,3.29
2022-12-18T06:38:45.402Z,3.27
2022-12-18T06:41:22.638Z,3.33
2022-12-18T06:43:49.682Z,3.30
2022-12-18T06:46:16.566Z,3.51
2022-12-18T06:48:43.388Z,3.57
2022-12-18T06:51:10.214Z,3.59
2022-12-18T06:53:37.215Z,3.67
2022-12-18T06:56:09.914Z,3.74
2022-12-18T06:58:38.041Z,3.71
2022-12-18T07:01:07.284Z,3.65
2022-12-18T07:03:34.122Z,3.70
2022-12-18T07:06:01.014Z,3.53
2022-12-18T07:08:29.586Z,3.69
2022-12-18T07:10:56.647Z,3.78
2022-12-18T07:13:23.912Z,3.78
2022-12-18T07:15:50.841Z,3.75
2022-12-18T07:18:17.652Z,3.68
2022-12-18T07:20:45.352Z,3.66
2022-12-18T07:23:13.105Z,3.82
2022-12-18T07:25:40.598Z,3.94
2022-12-18T07:28:08.263Z,3.67
2022-12-18T07:30:39.495Z,3.89
2022-12-18T07:33:06.363Z,3.87
2022-12-18T07:35:39.059Z,3.79
2022-12-18T07:38:06.122Z,3.78
2022-12-18T07:40:32.912Z,3.93
2022-12-18T07:42:59.762Z,3.89
2022-12-18T07:45:26.643Z,3.77
2022-12-18T07:47:53.463Z,3.77
2022-12-18T07:50:20.295Z,3.79
2022-12-18T07:52:47.713Z,3.80
2022-12-18T07:55:14.633Z,3.95
2022-12-18T07:57:50.769Z,4.03
2022-12-18T08:00:18.994Z,4.35
2022-12-18T08:02:46.081Z,4.47
2022-12-18T08:05:13.095Z,4.63
2022-12-18T08:07:39.975Z,4.77
2022-12-18T08:10:07.703Z,4.36
2022-12-18T08:12:34.504Z,4.26
2022-12-18T08:15:01.951Z,4.31
2022-12-18T08:17:28.873Z,4.38
2022-12-18T08:19:55.635Z,4.40
2022-12-18T08:22:22.433Z,4.84
2022-12-18T08:24:49.232Z,4.85
2022-12-18T08:27:31.483Z,5.16
2022-12-18T08:29:58.902Z,4.90
2022-12-18T08:32:27.604Z,5.21
2022-12-18T08:34:54.865Z,5.19
2022-12-18T08:37:21.719Z,5.20
2022-12-18T08:39:48.508Z,5.49
2022-12-18T08:42:33.756Z,5.42
2022-12-18T08:45:00.615Z,5.48
2022-12-18T08:47:27.413Z,5.63
2022-12-18T08:49:54.315Z,5.73
2022-12-18T08:52:21.184Z,5.83
2022-12-18T08:54:48.024Z,6.18
2022-12-18T08:57:14.894Z,6.82
2022-12-18T08:59:41.674Z,7.19
2022-12-18T09:02:11.845Z,8.53
2022-12-18T09:04:39.008Z,8.94
2022-12-18T09:07:05.774Z,9.12
2022-12-18T09:09:32.644Z,9.92
2022-12-18T09:11:59.422Z,10.19
2022-12-18T09:14:26.174Z,9.81
2022-12-18T09:16:53.127Z,9.63
2022-12-18T09:19:19.912Z,10.01
2022-12-18T09:21:48.470Z,10.60
2022-12-18T09:24:16.522Z,10.47
2022-12-18T09:26:46.866Z,10.39
2022-12-18T09:29:15.634Z,10.17
2022-12-18T09:31:43.595Z,9.87
2022-12-18T09:34:10.390Z,9.98
2022-12-18T09:36:37.294Z,10.25
2022-12-18T09:39:08.251Z,9.73
2022-12-18T09:41:38.486Z,9.20
2022-12-18T09:44:24.562Z,8.43
2022-12-18T09:46:58.542Z,8.30
2022-12-18T09:49:30.775Z,7.53
2022-12-18T09:52:05.183Z,7.10
2022-12-18T09:54:45.450Z,7.16
2022-12-18T09:57:17.635Z,7.08
2022-12-18T09:59:51.795Z,6.81
2022-12-18T10:02:26.849Z,6.42
2022-12-18T10:05:18.307Z,6.72
2022-12-18T10:08:30.993Z,6.79
2022-12-18T10:11:05.075Z,6.63
2022-12-18T10:13:48.514Z,6.28
2022-12-18T10:16:37.083Z,5.94
2022-12-18T10:19:29.105Z,5.90
2022-12-18T10:22:13.813Z,5.80
2022-12-18T10:24:55.174Z,5.77
2022-12-18T10:27:28.003Z,6.06
2022-12-18T10:29:55.152Z,6.66
2022-12-18T10:32:26.002Z,6.73
2022-12-18T10:35:00.104Z,6.69
2022-12-18T10:37:30.048Z,6.32
2022-12-18T10:40:21.936Z,6.40
2022-12-18T10:43:05.641Z,6.22
2022-12-18T10:45:32.603Z,5.72
2022-12-18T10:48:00.102Z,5.65
2022-12-18T10:51:08.748Z,5.57
2022-12-18T10:53:31.285Z,5.96
2022-12-18T10:56:04.701Z,5.72
2022-12-18T10:58:35.734Z,5.65
2022-12-18T11:01:04.714Z,5.65
2022-12-18T11:03:39.323Z,5.45
2022-12-18T11:06:15.303Z,5.45
2022-12-18T11:08:45.099Z,5.14
2022-12-18T11:11:23.459Z,5.04
2022-12-18T11:14:05.326Z,5.19
2022-12-18T11:17:03.208Z,5.12
2022-12-18T11:19:38.814Z,4.92
2022-12-18T11:22:21.992Z,4.96
2022-12-18T11:25:30.018Z,5.16
2022-12-18T11:27:55.302Z,4.85
2022-12-18T11:30:36.453Z,5.01
2022-12-18T11:33:20.462Z,4.97
2022-12-18T11:35:54.832Z,4.69
2022-12-18T11:38:33.374Z,4.90
2022-12-18T11:41:18.722Z,4.78
2022-12-18T11:43:54.152Z,4.59
2022-12-18T11:46:43.097Z,4.76
2022-12-18T11:49:26.792Z,4.84
2022-12-18T11:52:04.721Z,4.80
2022-12-18T11:54:31.593Z,4.79
2022-12-18T11:57:30.589Z,4.92
2022-12-18T12:00:06.103Z,4.74
2022-12-18T12:03:03.492Z,4.62
2022-12-18T12:05:46.822Z,4.90
2022-12-18T12:08:32.939Z,4.80
2022-12-18T12:11:20.590Z,4.86
2022-12-18T12:14:08.561Z,4.82
2022-12-18T12:16:56.441Z,4.86
2022-12-18T12:19:47.241Z,4.90
2022-12-18T12:22:30.523Z,4.88
2022-12-18T12:25:15.504Z,4.72
2022-12-18T12:28:03.993Z,4.90
2022-12-18T12:31:01.486Z,4.72
2022-12-18T12:33:48.324Z,4.74
2022-12-18T12:36:38.233Z,4.71
2022-12-18T12:39:14.912Z,4.52
2022-12-18T12:42:04.882Z,4.74
2022-12-18T12:44:42.202Z,4.78
2022-12-18T12:47:20.442Z,4.74
2022-12-18T12:49:51.585Z,4.68
2022-12-18T12:52:38.801Z,4.71
2022-12-18T12:55:10.271Z,4.78
2022-12-18T12:57:50.083Z,4.58
2022-12-18T13:00:25.197Z,4.73
2022-12-18T13:03:35.206Z,4.74
2022-12-18T13:06:11.046Z,4.80
2022-12-18T13:09:00.164Z,4.57
2022-12-18T13:12:00.350Z,4.58
2022-12-18T13:14:35.012Z,4.22
2022-12-18T13:17:30.437Z,4.40
2022-12-18T13:20:17.165Z,4.34
2022-12-18T13:22:49.475Z,4.55
2022-12-18T13:25:37.366Z,4.42
2022-12-18T13:28:13.724Z,4.32
2022-12-18T13:30:57.698Z,4.37
2022-12-18T13:33:25.041Z,3.98
2022-12-18T13:35:51.888Z,4.23
2022-12-18T13:38:38.174Z,4.08
2022-12-18T13:41:20.063Z,3.99
2022-12-18T13:43:49.483Z,3.91
2022-12-18T13:46:44.922Z,3.97
2022-12-18T13:49:14.497Z,3.89
2022-12-18T13:51:50.624Z,3.98
2022-12-18T13:54:37.266Z,3.89
2022-12-18T13:57:07.543Z,3.65
2022-12-18T13:59:38.153Z,3.77
2022-12-18T14:02:16.880Z,3.62
2022-12-18T14:04:47.663Z,3.70
2022-12-18T14:07:17.366Z,3.68
2022-12-18T14:09:52.278Z,3.67
2022-12-18T14:12:42.717Z,3.79
2022-12-18T14:15:32.819Z,3.67
2022-12-18T14:18:03.108Z,3.57
2022-12-18T14:20:33.693Z,3.74
2022-12-18T14:23:01.474Z,3.50
2022-12-18T14:25:30.941Z,3.52
2022-12-18T14:28:09.879Z,3.39
2022-12-18T14:30:39.439Z,3.51
2022-12-18T14:33:09.196Z,3.44
2022-12-18T14:35:39.224Z,3.40
2022-12-18T14:38:22.386Z,3.30
2022-12-18T14:40:56.094Z,3.41
2022-12-18T14:43:23.592Z,3.37
2022-12-18T14:45:51.576Z,3.36
2022-12-18T14:48:37.217Z,3.31
2022-12-18T14:51:24.512Z,3.20
2022-12-18T14:54:18.173Z,3.35
2022-12-18T14:56:52.293Z,3.27
2022-12-18T14:59:27.513Z,3.35
2022-12-18T15:02:04.077Z,3.40
2022-12-18T15:04:45.122Z,3.34
2022-12-18T15:07:23.308Z,3.32
2022-12-18T15:10:08.764Z,3.26
2022-12-18T15:12:50.052Z,3.24
2022-12-18T15:15:37.987Z,2.91
2022-12-18T15:18:24.496Z,2.86
2022-12-18T15:20:56.292Z,2.91
2022-12-18T15:23:45.019Z,3.14
2022-12-18T15:26:14.325Z,3.01
2022-12-18T15:29:04.367Z,3.12
2022-12-18T15:31:36.007Z,3.15
2022-12-18T15:34:21.825Z,3.13
2022-12-18T15:36:48.894Z,3.02
2022-12-18T15:39:15.776Z,3.03
2022-12-18T15:42:02.589Z,2.84
2022-12-18T15:44:30.744Z,2.90
2022-12-18T15:46:59.281Z,2.89
2022-12-18T15:49:26.460Z,2.71
2022-12-18T15:51:57.798Z,2.79
2022-12-18T15:54:43.290Z,2.79
2022-12-18T15:57:24.307Z,2.68
2022-12-18T15:59:53.995Z,2.53
2022-12-18T16:02:24.054Z,2.66
2022-12-18T16:04:55.233Z,2.72
2022-12-18T16:07:24.933Z,2.66
2022-12-18T16:09:53.134Z,2.63
2022-12-18T16:12:25.952Z,2.59
2022-12-18T16:14:52.868Z,2.65
2022-12-18T16:17:20.538Z,2.56
2022-12-18T16:19:47.420Z,2.63
2022-12-18T16:22:22.116Z,2.71
2022-12-18T16:24:49.468Z,2.71
2022-12-18T16:27:16.345Z,2.75
2022-12-18T16:29:43.862Z,2.55
2022-12-18T16:32:15.443Z,2.56
2022-12-18T16:34:43.311Z,2.48
2022-12-18T16:37:14.004Z,2.54
2022-12-18T16:39:42.788Z,2.66
2022-12-18T16:42:21.290Z,2.61
2022-12-18T16:44:50.126Z,2.53
2022-12-18T16:47:17.537Z,2.57
2022-12-18T16:49:51.901Z,2.47
2022-12-18T16:52:19.567Z,2.62
2022-12-18T16:54:47.947Z,2.65
2022-12-18T16:57:19.583Z,2.61
2022-12-18T16:59:48.382Z,2.59
2022-12-18T17:02:26.269Z,2.53
2022-12-18T17:04:58.267Z,2.63
2022-12-18T17:07:26.078Z,2.73
2022-12-18T17:09:54.376Z,2.69
2022-12-18T17:12:22.430Z,2.64
2022-12-18T17:14:51.446Z,2.64
2022-12-18T17:17:21.486Z,2.48
2022-12-18T17:19:50.988Z,2.63
2022-12-18T17:22:18.231Z,2.70
2022-12-18T17:24:46.114Z,2.74
2022-12-18T17:27:14.412Z,2.59
2022-12-18T17:29:47.393Z,2.64
2022-12-18T17:32:18.314Z,2.79
2022-12-18T17:34:46.301Z,2.66
2022-12-18T17:37:16.671Z,2.59
2022-12-18T17:39:43.659Z,2.63
2022-12-18T17:42:14.949Z,2.66
2022-12-18T17:44:43.102Z,2.53
2022-12-18T17:47:12.355Z,2.50
2022-12-18T17:49:42.122Z,2.49
2022-12-18T17:52:09.712Z,2.62
2022-12-18T17:54:44.516Z,2.55
2022-12-18T17:57:12.354Z,2.51
2022-12-18T17:59:39.358Z,2.45
2022-12-18T18:02:06.593Z,2.56
2022-12-18T18:04:33.957Z,2.62
2022-12-18T18:07:00.820Z,2.38
2022-12-18T18:09:27.782Z,2.42
2022-12-18T18:12:13.067Z,2.57
2022-12-18T18:14:40.415Z,2.64
2022-12-18T18:17:07.365Z,2.49
2022-12-18T18:19:34.443Z,2.63
2022-12-18T18:22:02.193Z,2.55
2022-12-18T18:24:30.205Z,2.57
2022-12-18T18:26:59.676Z,2.48
2022-12-18T18:29:29.039Z,2.38
2022-12-18T18:31:57.080Z,2.28
2022-12-18T18:34:26.792Z,2.31
2022-12-18T18:36:53.884Z,2.43
2022-12-18T18:39:21.279Z,2.42
2022-12-18T18:41:48.726Z,2.52
2022-12-18T18:44:17.375Z,2.47
2022-12-18T18:46:45.129Z,2.48
2022-12-18T18:49:13.831Z,2.32
2022-12-18T18:51:41.492Z,2.42
2022-12-18T18:54:09.172Z,2.49
2022-12-18T18:59:24.993Z,2.66
2022-12-18T19:01:59.206Z,2.63
2022-12-18T19:04:26.254Z,2.66
2022-12-18T19:06:53.115Z,2.53
2022-12-18T19:09:21.061Z,2.58
2022-12-18T19:12:06.454Z,2.55
2022-12-18T19:14:33.413Z,2.55
2022-12-18T19:17:00.512Z,2.61
2022-12-18T19:19:28.499Z,2.55
2022-12-18T19:21:55.452Z,2.48
2022-12-18T19:24:22.589Z,2.61
2022-12-18T19:26:49.661Z,2.55
2022-12-18T19:29:16.445Z,2.57
2022-12-18T19:31:43.413Z,2.64
2022-12-18T19:34:10.679Z,2.60
2022-12-18T19:36:40.198Z,2.63
2022-12-18T19:39:16.504Z,2.60
2022-12-18T19:41:44.313Z,2.68
2022-12-18T19:44:13.853Z,2.46
2022-12-18T19:46:42.526Z,2.58
2022-12-18T19:49:11.068Z,2.67
2022-12-18T19:51:38.360Z,2.73
2022-12-18T19:54:05.656Z,2.84
2022-12-18T19:56:35.149Z,2.82
2022-12-18T19:59:03.730Z,2.79
2022-12-18T20:01:30.755Z,2.71
2022-12-18T20:03:58.958Z,2.69
2022-12-18T20:06:48.822Z,2.81
2022-12-18T20:09:16.589Z,2.63
2022-12-18T20:11:43.485Z,2.80
2022-12-18T20:14:12.247Z,2.70
2022-12-18T20:16:39.468Z,2.66
2022-12-18T20:19:08.003Z,2.74
2022-12-18T20:21:36.138Z,2.77
2022-12-18T20:24:03.228Z,2.65
2022-12-18T20:26:30.135Z,2.69
2022-12-18T20:28:57.060Z,2.64
2022-12-18T20:31:24.570Z,2.66
2022-12-18T20:33:53.305Z,2.72
2022-12-18T20:36:25.840Z,2.67
2022-12-18T20:38:59.166Z,2.59
2022-12-18T20:41:33.507Z,2.57
2022-12-18T20:44:05.466Z,2.45
2022-12-18T20:46:34.414Z,2.47
2022-12-18T20:49:01.317Z,2.59
2022-12-18T20:51:29.293Z,2.58
2022-12-18T20:53:56.576Z,2.52
2022-12-18T20:56:23.685Z,2.56
2022-12-18T20:58:50.915Z,2.54
2022-12-18T21:01:24.050Z,2.46
2022-12-18T21:03:51.619Z,2.59
2022-12-18T21:06:20.514Z,2.63
2022-12-18T21:08:48.249Z,2.55
2022-12-18T21:11:34.897Z,2.68
2022-12-18T21:14:25.930Z,2.70
2022-12-18T21:16:56.971Z,2.61
2022-12-18T21:19:27.228Z,2.62
2022-12-18T21:21:55.859Z,2.66
2022-12-18T21:24:23.543Z,2.59
2022-12-18T21:26:50.653Z,2.55
2022-12-18T21:29:24.364Z,2.55
2022-12-18T21:31:54.001Z,2.51
2022-12-18T21:34:23.309Z,2.60
2022-12-18T21:36:50.324Z,2.68
2022-12-18T21:39:17.384Z,2.80
2022-12-18T21:42:06.020Z,2.67
2022-12-18T21:44:36.154Z,2.57
2022-12-18T21:47:22.070Z,2.61
2022-12-18T21:49:54.026Z,2.59
2022-12-18T21:52:31.378Z,2.52
2022-12-18T21:55:08.418Z,2.60
2022-12-18T21:57:37.458Z,2.60
2022-12-18T22:00:05.902Z,2.43
2022-12-18T22:02:32.830Z,2.41
2022-12-18T22:05:00.019Z,2.38
2022-12-18T22:07:29.100Z,2.32
2022-12-18T22:09:55.889Z,2.38
2022-12-18T22:12:43.186Z,2.42
2022-12-18T22:15:21.479Z,2.48
2022-12-18T22:17:54.137Z,2.44
2022-12-18T22:20:26.896Z,2.36
2022-12-18T22:22:53.753Z,2.17
2022-12-18T22:25:20.525Z,2.10
2022-12-18T22:28:07.309Z,2.32
2022-12-18T22:33:33.865Z,2.37
2022-12-18T22:36:07.796Z,2.46
2022-12-18T22:38:34.617Z,2.41
2022-12-18T22:41:01.498Z,2.37
2022-12-18T22:43:28.427Z,2.34
2022-12-18T22:45:55.491Z,2.37
2022-12-18T22:48:22.497Z,2.16
2022-12-18T22:50:50.166Z,2.37
2022-12-18T22:53:19.843Z,2.29
2022-12-18T22:55:46.657Z,2.22
2022-12-18T22:58:13.445Z,2.25
2022-12-18T23:00:40.822Z,2.21
2022-12-18T23:03:07.892Z,2.16
2022-12-18T23:05:34.744Z,2.30
2022-12-18T23:08:01.546Z,2.27
2022-12-18T23:10:28.627Z,2.23
2022-12-18T23:12:55.479Z,2.31
2022-12-18T23:15:27.657Z,2.22
2022-12-18T23:17:56.117Z,1.99
2022-12-18T23:20:23.017Z,2.02
2022-12-18T23:22:49.780Z,1.98
2022-12-18T23:25:16.705Z,2.01
2022-12-18T23:27:43.519Z,2.01
2022-12-18T23:30:10.957Z,1.93
2022-12-18T23:32:37.859Z,2.11
2022-12-18T23:35:05.217Z,2.19
2022-12-18T23:37:57.527Z,2.22
2022-12-18T23:40:20.778Z,2.24
2022-12-18T23:42:47.578Z,2.28
2022-12-18T23:45:18.115Z,2.01
2022-12-18T23:47:45.165Z,2.09
2022-12-18T23:50:14.757Z,1.90
2022-12-18T23:52:41.537Z,1.96
2022-12-18T23:55:08.788Z,1.79
2022-12-18T23:57:35.599Z,1.92
